Time;durP1;ratioP1;P1;durP2;ratioP2;P2;SDS_P1;SDS_P2;PMS_P1;PMS_P2;Temp;Humidity;BMP_temperature;BMP_pressure;BME280_temperature;BME280_humidity;BME280_pressure;Samples;Min_cycle;Max_cycle;Signal;HPM_P1;HPM_P2
2022/02/07 00:00:25;;;;;;;0.45;0.45;;;;;;;;;;6220513;23;20004;-95
2022/02/07 00:05:26;;;;;;;0.50;0.50;;;;;;;;;;6249174;23;20474;-96
2022/02/07 00:07:52;;;;;;;1.65;0.70;;;;;;;;;;6249362;23;20011;-96
2022/02/07 00:10:18;;;;;;;1.08;0.35;;;;;;;;;;6249203;23;20030;-96
2022/02/07 00:12:47;;;;;;;0.40;0.40;;;;;;;;;;6248491;23;19996;-96
2022/02/07 00:15:16;;;;;;;1.30;0.70;;;;;;;;;;6221942;23;20086;-95
2022/02/07 00:17:42;;;;;;;0.30;0.30;;;;;;;;;;6221821;23;20008;-95
2022/02/07 00:20:17;;;;;;;0.75;0.70;;;;;;;;;;6222048;23;20008;-95
2022/02/07 00:22:47;;;;;;;0.90;0.60;;;;;;;;;;6248463;23;20520;-96
2022/02/07 00:25:13;;;;;;;0.30;0.30;;;;;;;;;;6222054;23;20011;-96
2022/02/07 00:27:39;;;;;;;0.40;0.40;;;;;;;;;;6248500;23;20014;-96
2022/02/07 00:30:06;;;;;;;0.75;0.75;;;;;;;;;;6221727;23;20024;-96
2022/02/07 00:32:35;;;;;;;1.02;0.65;;;;;;;;;;6248165;23;20005;-95
2022/02/07 00:35:07;;;;;;;0.40;0.35;;;;;;;;;;6248569;23;20020;-96
2022/02/07 00:37:34;;;;;;;0.40;0.40;;;;;;;;;;6221580;23;20324;-95
2022/02/07 00:40:17;;;;;;;0.43;0.43;;;;;;;;;;6248004;23;20016;-95
2022/02/07 00:43:01;;;;;;;1.27;0.50;;;;;;;;;;6220823;23;20019;-95
2022/02/07 00:48:01;;;;;;;0.70;0.50;;;;;;;;;;6248090;23;20008;-96
2022/02/07 00:50:28;;;;;;;0.50;0.50;;;;;;;;;;6221014;23;20008;-94
2022/02/07 00:52:54;;;;;;;0.40;0.40;;;;;;;;;;6221358;23;20000;-96
2022/02/07 00:55:20;;;;;;;0.40;0.40;;;;;;;;;;6221258;23;20016;-96
2022/02/07 00:57:46;;;;;;;1.45;0.70;;;;;;;;;;6221115;23;20134;-96
2022/02/07 01:00:12;;;;;;;0.40;0.40;;;;;;;;;;6247618;23;20008;-95
2022/02/07 01:02:38;;;;;;;0.30;0.30;;;;;;;;;;6221552;23;20038;-95
2022/02/07 01:05:05;;;;;;;0.40;0.40;;;;;;;;;;6221267;23;20000;-95
2022/02/07 01:07:31;;;;;;;0.50;0.50;;;;;;;;;;6221440;23;20007;-95
2022/02/07 01:09:58;;;;;;;0.40;0.40;;;;;;;;;;6222106;23;20008;-96
2022/02/07 01:12:42;;;;;;;0.45;0.45;;;;;;;;;;6248267;23;20004;-96
2022/02/07 01:15:26;;;;;;;0.30;0.30;;;;;;;;;;6247234;23;20007;-96
2022/02/07 01:56:33;;;;;;;0.35;0.35;;;;;;;;;;6011385;23;20012;-96
2022/02/07 01:59:02;;;;;;;0.65;0.60;;;;;;;;;;6011224;23;20023;-94
2022/02/07 02:01:29;;;;;;;0.30;0.30;;;;;;;;;;6010960;23;20008;-96
2022/02/07 02:03:55;;;;;;;0.50;0.50;;;;;;;;;;6100863;23;20013;-96
2022/02/07 02:06:22;;;;;;;0.30;0.30;;;;;;;;;;6125832;23;20133;-95
2022/02/07 02:08:49;;;;;;;0.50;0.50;;;;;;;;;;6125988;23;20195;-95
2022/02/07 02:11:21;;;;;;;0.52;0.40;;;;;;;;;;6125894;23;20058;-95
2022/02/07 02:14:57;;;;;;;0.45;0.45;;;;;;;;;;6125657;23;20099;-95
2022/02/07 02:33:07;;;;;;;0.40;0.40;;;;;;;;;;6246228;23;20015;-94
2022/02/07 02:38:50;;;;;;;0.43;0.43;;;;;;;;;;6233765;23;20004;-95
2022/02/07 02:46:37;;;;;;;0.50;0.50;;;;;;;;;;6246469;23;20051;-95
2022/02/07 02:49:22;;;;;;;0.50;0.50;;;;;;;;;;6242163;23;20054;-95
2022/02/07 02:51:53;;;;;;;1.58;1.15;;;;;;;;;;6245713;23;20008;-94
2022/02/07 02:54:28;;;;;;;0.80;0.70;;;;;;;;;;6246523;23;20031;-95
2022/02/07 02:56:54;;;;;;;0.60;0.60;;;;;;;;;;6219466;23;20087;-96
2022/02/07 02:59:20;;;;;;;1.35;0.73;;;;;;;;;;6220190;23;20035;-95
2022/02/07 03:01:49;;;;;;;0.82;0.80;;;;;;;;;;6246115;23;20054;-95
2022/02/07 03:04:24;;;;;;;1.98;0.73;;;;;;;;;;6245908;23;20016;-96
2022/02/07 03:06:53;;;;;;;0.50;0.50;;;;;;;;;;6219927;23;20007;-95
2022/02/07 03:09:25;;;;;;;0.40;0.40;;;;;;;;;;6247572;23;20032;-96
2022/02/07 03:11:52;;;;;;;0.50;0.50;;;;;;;;;;6246999;23;20420;-94
2022/02/07 03:14:34;;;;;;;0.40;0.40;;;;;;;;;;6246987;23;20024;-96
2022/02/07 03:17:03;;;;;;;0.65;0.60;;;;;;;;;;6219975;23;20000;-95
2022/02/07 03:19:29;;;;;;;0.88;0.77;;;;;;;;;;6247369;23;20066;-95
2022/02/07 03:22:01;;;;;;;0.88;0.85;;;;;;;;;;6247266;23;20049;-94
2022/02/07 03:24:30;;;;;;;1.00;0.77;;;;;;;;;;6247186;23;21114;-95
2022/02/07 03:27:05;;;;;;;2.05;0.70;;;;;;;;;;6220224;23;19996;-96
2022/02/07 03:29:37;;;;;;;0.60;0.60;;;;;;;;;;6247213;23;20008;-94
2022/02/07 03:32:28;;;;;;;1.73;0.98;;;;;;;;;;6246405;23;20004;-94
2022/02/07 03:34:56;;;;;;;0.40;0.40;;;;;;;;;;6152795;23;20017;-96
2022/02/07 03:37:32;;;;;;;0.43;0.43;;;;;;;;;;6153423;23;20006;-94
2022/02/07 03:39:58;;;;;;;0.50;0.50;;;;;;;;;;6154034;23;20097;-94
2022/02/07 03:42:33;;;;;;;0.30;0.30;;;;;;;;;;6153594;23;20021;-95
2022/02/07 03:44:59;;;;;;;0.95;0.47;;;;;;;;;;6154062;23;20530;-95
2022/02/07 03:47:25;;;;;;;0.40;0.40;;;;;;;;;;6153929;23;20006;-95
2022/02/07 03:49:51;;;;;;;1.48;0.40;;;;;;;;;;6153935;23;20073;-95
2022/02/07 03:52:21;;;;;;;1.10;0.40;;;;;;;;;;6154807;23;20503;-93
2022/02/07 03:54:53;;;;;;;0.40;0.40;;;;;;;;;;6154289;23;20080;-95
2022/02/07 03:57:32;;;;;;;0.88;0.88;;;;;;;;;;6154296;23;20349;-96
2022/02/07 03:59:59;;;;;;;0.65;0.60;;;;;;;;;;6154313;23;20013;-95
2022/02/07 04:02:25;;;;;;;0.40;0.40;;;;;;;;;;6145381;23;20396;-96
2022/02/07 04:05:16;;;;;;;0.80;0.80;;;;;;;;;;6154576;23;20453;-96
2022/02/07 04:07:48;;;;;;;0.30;0.30;;;;;;;;;;6154788;23;20005;-95
2022/02/07 04:10:21;;;;;;;0.38;0.38;;;;;;;;;;6154014;23;20016;-96
2022/02/07 04:12:57;;;;;;;0.65;0.40;;;;;;;;;;6232105;23;20004;-94
2022/02/07 04:15:26;;;;;;;0.50;0.50;;;;;;;;;;6247321;23;20004;-95
2022/02/07 04:18:00;;;;;;;0.75;0.60;;;;;;;;;;6220143;23;20035;-95
2022/02/07 04:20:29;;;;;;;0.40;0.40;;;;;;;;;;6245852;23;20019;-94
2022/02/07 04:22:55;;;;;;;1.02;0.90;;;;;;;;;;6247114;23;20012;-95
2022/02/07 04:25:24;;;;;;;0.88;0.85;;;;;;;;;;6246418;23;19997;-95
2022/02/07 04:27:59;;;;;;;1.20;0.80;;;;;;;;;;6246789;23;20004;-96
2022/02/07 04:30:28;;;;;;;0.30;0.30;;;;;;;;;;6220574;23;20004;-96
2022/02/07 04:33:06;;;;;;;0.30;0.30;;;;;;;;;;6195410;23;20382;-96
2022/02/07 04:35:32;;;;;;;0.30;0.30;;;;;;;;;;6246975;23;20017;-95
2022/02/07 04:38:01;;;;;;;2.35;0.40;;;;;;;;;;6219881;23;20566;-94
2022/02/07 04:40:36;;;;;;;0.52;0.43;;;;;;;;;;6220147;23;20371;-95
2022/02/07 04:43:14;;;;;;;5.25;0.70;;;;;;;;;;6242167;23;20016;-96
2022/02/07 04:59:17;;;;;;;4.93;0.60;;;;;;;;;;6252467;23;20064;-96
2022/02/07 05:01:51;;;;;;;;;;;9.10;99.70;;;;;;6249733;23;20004;-95
2022/02/07 05:04:31;;;;;;;10.23;0.68;;;;;;;;;;6225602;23;19920;-96
2022/02/07 05:15:22;;;;;;;0.50;0.50;;;;;;;;;;6251951;23;20019;-95
2022/02/07 05:17:58;;;;;;;0.38;0.38;;;;;;;;;;6247175;23;20008;-96
2022/02/07 05:20:24;;;;;;;0.60;0.40;;;;;;;;;;6251821;23;20126;-96
2022/02/07 05:22:50;;;;;;;0.50;0.50;;;;;;;;;;6224935;23;20443;-96
2022/02/07 05:25:25;;;;;;;12.77;1.20;;;;;;;;;;6254750;23;20011;-95
2022/02/07 05:27:52;;;;;;;0.32;0.32;;;;;;;;;;6240977;23;20051;-96
2022/02/07 05:30:28;;;;;;;0.80;0.55;;;;;;;;;;6253109;23;20015;-96
2022/02/07 05:32:57;;;;;;;1.05;0.52;;;;;;;;;;6225219;23;20011;-95
2022/02/07 05:35:26;;;;;;;0.82;0.52;;;;;;;;;;6250799;23;20115;-96
2022/02/07 05:37:56;;;;;;;3.03;1.17;;;;;;;;;;6249058;23;20004;-96
2022/02/07 05:40:47;;;;;;;1.42;0.38;;;;;;;;;;6197039;23;20016;-95
2022/02/07 05:43:17;;;;;;;0.50;0.50;;;;;;;;;;6248033;23;20094;-96
2022/02/07 05:45:55;;;;;;;3.97;0.82;;;;;;;;;;6248276;23;20004;-96
2022/02/07 05:48:27;;;;;;;0.45;0.45;;;;;;;;;;6248506;23;20008;-95
2022/02/07 05:50:53;;;;;;;4.78;0.55;;;;;;;;;;6248695;23;20000;-95
2022/02/07 05:53:20;;;;;;;1.27;0.77;;;;;;;;;;6243920;23;20004;-96
2022/02/07 05:59:10;;;;;;;1.48;1.15;;;;;;;;;;6185398;23;20005;-95
2022/02/07 06:01:36;;;;;;;1.75;0.85;;;;;;;;;;6160559;23;20016;-96
2022/02/07 06:04:05;;;;;;;0.98;0.80;;;;;;;;;;6181418;23;20020;-95
2022/02/07 06:06:43;;;;;;;5.68;0.77;;;;;;;;;;6160808;23;20005;-95
2022/02/07 06:09:15;;;;;;;3.38;1.25;;;;;;;;;;6185705;23;20032;-95
2022/02/07 06:11:46;;;;;;;1.08;0.90;;;;;;;;;;6160631;23;20039;-96
2022/02/07 06:14:22;;;;;;;1.20;0.93;;;;;;;;;;6185840;23;20024;-96
2022/02/07 06:16:52;;;;;;;2.40;0.85;;;;;;;;;;6161104;23;20017;-96
2022/02/07 06:19:18;;;;;;;0.65;0.63;;;;;;;;;;6186719;23;20011;-95
2022/02/07 06:22:05;;;;;;;4.50;0.50;;;;;;;;;;6185846;23;20448;-96
2022/02/07 06:24:33;;;;;;;0.52;0.52;;;;;;;;;;6184919;23;20088;-96
2022/02/07 06:27:08;;;;;;;0.75;0.55;;;;;;;;;;6160051;23;20013;-95
2022/02/07 06:29:37;;;;;;;5.05;0.63;;;;;;;;;;6185006;23;19998;-96
2022/02/07 06:32:09;;;;;;;2.30;0.40;;;;;;;;;;6160068;23;20380;-95
2022/02/07 06:34:38;;;;;;;1.58;1.23;;;;;;;;;;6184009;23;20555;-94
2022/02/07 06:37:07;;;;;;;3.50;0.75;;;;;;;;;;6245648;23;20398;-96
2022/02/07 06:39:42;;;;;;;0.50;0.50;;;;;;;;;;6217715;23;20004;-95
2022/02/07 06:42:09;;;;;;;0.52;0.52;;;;;;;;;;6245334;23;20004;-96
2022/02/07 06:44:44;;;;;;;0.80;0.63;;;;;;;;;;6244985;23;20016;-93
2022/02/07 06:47:10;;;;;;;3.83;0.70;;;;;;;;;;6217917;23;20012;-96
2022/02/07 06:49:36;;;;;;;0.75;0.60;;;;;;;;;;6244743;23;20011;-96
2022/02/07 06:52:02;;;;;;;3.55;1.30;;;;;;;;;;6217303;23;20410;-95
2022/02/07 06:54:37;;;;;;;1.73;1.00;;;;;;;;;;6218297;23;20383;-95
2022/02/07 06:57:03;;;;;;;1.02;1.02;;;;;;;;;;6245706;23;20023;-96
2022/02/07 06:59:33;;;;;;;0.50;0.50;;;;;;;;;;6218905;23;20477;-96
2022/02/07 07:02:09;;;;;;;0.40;0.40;;;;;;;;;;6244719;23;20035;-95
2022/02/07 07:04:43;;;;;;;4.10;1.45;;;;;;;;;;6246417;23;20036;-95
2022/02/07 07:07:09;;;;;;;1.92;0.93;;;;;;;;;;6217771;23;20014;-96
2022/02/07 07:09:37;;;;;;;3.83;0.63;;;;;;;;;;6245750;23;20024;-95
2022/02/07 07:12:06;;;;;;;2.38;0.88;;;;;;;;;;6244412;23;20000;-96
2022/02/07 07:14:50;;;;;;;4.53;0.68;;;;;;;;;;6244122;23;20027;-95
2022/02/07 07:17:19;;;;;;;0.60;0.60;;;;;;;;;;6245101;23;20020;-95
2022/02/07 07:19:48;;;;;;;0.60;0.60;;;;;;;;;;6245505;23;20027;-94
2022/02/07 07:22:14;;;;;;;3.40;0.95;;;;;;;;;;6244681;23;20007;-96
2022/02/07 07:24:42;;;;;;;0.68;0.65;;;;;;;;;;6245108;23;20023;-95
2022/02/07 07:27:13;;;;;;;0.50;0.50;;;;;;;;;;6217439;23;20008;-93
2022/02/07 07:29:47;;;;;;;2.25;0.80;;;;;;;;;;6244074;23;20010;-94
2022/02/07 07:32:18;;;;;;;0.93;0.80;;;;;;;;;;6204283;23;20000;-93
2022/02/07 07:34:45;;;;;;;1.58;0.50;;;;;;;;;;6212648;23;20119;-91
2022/02/07 07:37:11;;;;;;;1.38;0.45;;;;;;;;;;6215623;23;20008;-91
2022/02/07 07:39:37;;;;;;;0.88;0.77;;;;;;;;;;6214817;23;20005;-93
2022/02/07 07:42:03;;;;;;;1.20;0.82;;;;;;;;;;6215100;23;20004;-91
2022/02/07 07:44:33;;;;;;;6.28;2.35;;;;;;;;;;6215297;23;20012;-90
2022/02/07 07:48:01;;;;;;;;;;;;;;;;;;;;;
2022/02/07 08:04:30;;;;;;;;;;;;;;;;;;;;;
2022/02/07 08:07:17;;;;;;;1.42;1.05;;;;;;;;;;6237177;23;20083;-96
2022/02/07 08:15:47;;;;;;;;;;;;;;;;;;;;;
2022/02/07 08:21:11;;;;;;;1.10;1.05;;;;;;;;;;6180594;23;20013;-93
2022/02/07 08:23:46;;;;;;;4.93;1.08;;;;;;;;;;6211867;23;20040;-95
2022/02/07 08:26:33;;;;;;;5.78;1.85;;;;;;;;;;6240383;23;20000;-94
2022/02/07 08:28:59;;;;;;;4.03;0.60;;;;;;;;;;6212088;23;20016;-93
2022/02/07 08:31:42;;;;;;;0.82;0.82;;;;;;;;;;6242770;23;20000;-93
2022/02/07 08:34:22;;;;;;;0.50;0.50;;;;;;;;;;6243596;23;20000;-92
2022/02/07 08:37:36;;;;;;;3.75;1.15;;;;;;;;;;6213691;23;20008;-92
2022/02/07 08:40:02;;;;;;;1.85;0.63;;;;;;;;;;6148424;23;20036;-92
2022/02/07 08:42:28;;;;;;;3.53;0.90;;;;;;;;;;6152322;23;20021;-92
2022/02/07 08:44:54;;;;;;;1.73;0.82;;;;;;;;;;6151090;23;20009;-92
2022/02/07 08:47:21;;;;;;;3.65;1.23;;;;;;;;;;6148103;23;20009;-92
2022/02/07 08:49:47;;;;;;;1.23;0.83;;;;;;;;;;6151986;23;20063;-92
2022/02/07 08:52:14;;;;;;;3.67;1.60;;;;;;;;;;6152337;23;20476;-92
2022/02/07 08:54:43;;;;;;;0.50;0.45;;;;;;;;;;6150981;23;20258;-92
2022/02/07 08:57:17;;;;;;;2.85;0.75;;;;;;;;;;6147912;23;20005;-91
2022/02/07 08:59:56;;;;;;;3.75;2.78;;;;;;;;;;6152210;23;20040;-91
2022/02/07 09:03:17;;;;;;;6.03;1.25;;;;;;;;;;6152053;23;20002;-91
2022/02/07 09:10:56;;;;;;;4.38;1.40;;;;;;;;;;6035273;23;20090;-93
2022/02/07 09:13:29;;;;;;;2.22;1.27;;;;;;;;;;6011783;23;20718;-94
2022/02/07 09:16:04;;;;;;;3.15;1.08;;;;;;;;;;6064029;23;20022;-92
2022/02/07 09:18:30;;;;;;;3.10;1.58;;;;;;;;;;6068940;23;20011;-92
2022/02/07 09:20:58;;;;;;;5.07;0.95;;;;;;;;;;6092729;23;20085;-91
2022/02/07 09:23:26;;;;;;;4.15;1.38;;;;;;;;;;6068169;23;20046;-91
2022/02/07 09:25:52;;;;;;;2.28;1.40;;;;;;;;;;6064570;23;20085;-91
2022/02/07 09:28:19;;;;;;;1.13;0.95;;;;;;;;;;6068566;23;20041;-92
2022/02/07 09:30:45;;;;;;;0.60;0.60;;;;;;;;;;6091583;23;20002;-93
2022/02/07 09:33:11;;;;;;;1.10;0.70;;;;;;;;;;6092533;23;20017;-93
2022/02/07 09:35:38;;;;;;;1.83;1.60;;;;;;;;;;6063490;23;20010;-90
2022/02/07 09:38:04;;;;;;;1.23;0.85;;;;;;;;;;6092128;23;20365;-91
2022/02/07 09:40:30;;;;;;;1.98;1.08;;;;;;;;;;6068624;23;20011;-91
2022/02/07 09:43:07;;;;;;;6.10;0.98;;;;;;;;;;6099152;23;20013;-91
2022/02/07 09:45:37;;;;;;;1.52;0.88;;;;;;;;;;6117148;23;20520;-94
2022/02/07 09:48:08;;;;;;;3.50;1.15;;;;;;;;;;6183735;23;20028;-91
2022/02/07 09:50:35;;;;;;;3.78;1.33;;;;;;;;;;6217258;23;20447;-89
2022/02/07 09:53:01;;;;;;;4.10;2.13;;;;;;;;;;6215819;23;20015;-90
2022/02/07 09:55:27;;;;;;;0.95;0.88;;;;;;;;;;6239708;23;20095;-91
2022/02/07 09:57:54;;;;;;;0.88;0.88;;;;;;;;;;6215494;23;20008;-90
2022/02/07 10:00:25;;;;;;;2.83;1.58;;;;;;;;;;6215993;23;20050;-90
2022/02/07 10:06:05;;;;;;;2.35;0.80;;;;;;;;;;6239530;23;20507;-89
2022/02/07 10:14:00;;;;;;;1.95;0.80;;;;;;;;;;6243561;23;20005;-91
2022/02/07 10:44:49;;;;;;;0.70;0.70;;;;;;;;;;6065989;23;20022;-96
2022/02/07 10:53:36;;;;;;;4.50;0.68;;;;;;;;;;6067370;23;20053;-94
2022/02/07 10:59:30;;;;;;;1.75;1.40;;;;;;;;;;6036561;23;20058;-94
2022/02/07 11:04:50;;;;;;;;;;;;;;;;;;;;;
2022/02/07 11:07:26;;;;;;;1.52;0.90;;;;;;;;;;6034701;23;20078;-95
2022/02/07 11:16:02;;;;;;;5.28;0.93;;;;;;;;;;6063592;23;20031;-96
2022/02/07 11:19:23;;;;;;;1.00;0.73;;;;;;;;;;6090909;23;20078;-94
2022/02/07 11:22:18;;;;;;;3.08;1.38;;;;;;;;;;6122147;23;20017;-94
2022/02/07 11:25:04;;;;;;;2.25;0.88;;;;;;;;;;6119830;23;20500;-93
2022/02/07 11:27:36;;;;;;;12.27;2.20;;;;;;;;;;6134266;23;20049;-93
2022/02/07 11:30:37;;;;;;;4.05;0.63;;;;;;;;;;6148862;23;20437;-94
2022/02/07 11:33:22;;;;;;;1.73;0.80;;;;;;;;;;6091705;23;20002;-93
2022/02/07 11:36:03;;;;;;;1.48;1.33;;;;;;;;;;6101000;23;20037;-96
2022/02/07 11:41:24;;;;;;;0.88;0.77;;;;;;;;;;6149630;23;20022;-93
2022/02/07 11:43:57;;;;;;;4.88;2.83;;;;;;;;;;6209925;23;20447;-93
2022/02/07 11:46:51;;;;;;;1.33;0.70;;;;;;;;;;6239065;23;20001;-96
2022/02/07 11:49:26;;;;;;;3.08;1.10;;;;;;;;;;6243175;23;20377;-93
2022/02/07 11:51:54;;;;;;;1.45;0.80;;;;;;;;;;6216254;23;20062;-94
2022/02/07 11:54:20;;;;;;;;;;;;;;;;;;6243372;23;20008;-93
2022/02/07 11:57:07;;;;;;;1.38;0.60;;;;;;;;;;6212254;23;19899;-94
2022/02/07 11:59:39;;;;;;;2.97;1.35;;;;;;;;;;6217262;23;20000;-94
2022/02/07 12:02:20;;;;;;;3.70;1.05;;;;;;;;;;6240212;23;20008;-93
2022/02/07 12:07:43;;;;;;;1.35;0.85;;;;;;;;;;6231409;23;20004;-93
2022/02/07 12:13:07;;;;;;;1.70;1.08;;;;;;;;;;6245740;23;20008;-94
2022/02/07 12:15:36;;;;;;;5.57;1.15;;;;;;;;;;6239955;23;20012;-95
2022/02/07 12:18:18;;;;;;;0.95;0.80;;;;;;;;;;6218204;23;20012;-93
2022/02/07 12:20:48;;;;;;;1.88;1.20;;;;;;;;;;6217813;23;20008;-93
2022/02/07 12:23:37;;;;;;;1.52;1.00;;;;;;;;;;6245061;23;20012;-92
2022/02/07 12:26:10;;;;;;;5.38;1.20;;;;;;;;;;6239498;23;20004;-93
2022/02/07 12:33:43;;;;;;;1.88;0.90;;;;;;;;;;6243840;23;20118;-92
2022/02/07 12:36:15;;;;;;;1.70;1.20;;;;;;;;;;6211859;23;20008;-93
2022/02/07 12:38:44;;;;;;;1.85;1.20;;;;;;;;;;6218236;23;20036;-93
2022/02/07 12:41:15;;;;;;;3.10;0.88;;;;;;;;;;6216960;23;20000;-94
2022/02/07 12:43:45;;;;;;;2.10;1.00;;;;;;;;;;6243462;23;20016;-93
2022/02/07 12:46:15;;;;;;;5.78;1.83;;;;;;;;;;6234845;23;20004;-94
2022/02/07 12:49:10;;;;;;;1.90;0.88;;;;;;;;;;6243771;23;20057;-94
2022/02/07 12:51:32;;;;;;;3.40;0.77;;;;;;;;;;6239932;23;20221;-93
2022/02/07 12:54:01;;;;;;;2.78;1.17;;;;;;;;;;6215530;23;20008;-93
2022/02/07 12:56:45;;;;;;;1.60;0.77;;;;;;;;;;6213028;23;20028;-93
2022/02/07 12:59:17;;;;;;;1.48;0.63;;;;;;;;;;6241865;23;20015;-91
2022/02/07 13:01:45;;;;;;;4.28;2.05;;;;;;;;;;6242486;23;20067;-92
2022/02/07 13:04:19;;;;;;;3.42;1.40;;;;;;;;;;6216675;23;20023;-92
2022/02/07 13:06:52;;;;;;;5.80;0.82;;;;;;;;;;6211467;23;20435;-93
2022/02/07 13:09:20;;;;;;;4.82;1.30;;;;;;;;;;6216743;23;20015;-94
2022/02/07 13:12:15;;;;;;;3.42;1.20;;;;;;;;;;6215818;23;20004;-96
2022/02/07 13:14:55;;;;;;;1.60;1.15;;;;;;;;;;6149990;23;20017;-93
2022/02/07 13:17:28;;;;;;;3.38;0.90;;;;;;;;;;6147762;23;20092;-94
2022/02/07 13:20:01;;;;;;;5.70;2.03;;;;;;;;;;6151228;23;20010;-94
2022/02/07 13:22:27;;;;;;;3.28;1.30;;;;;;;;;;6150563;23;20045;-93
2022/02/07 13:25:02;;;;;;;7.10;0.95;;;;;;;;;;6149318;23;20009;-92
2022/02/07 13:27:40;;;;;;;8.07;1.25;;;;;;;;;;6148199;23;20009;-96
2022/02/07 13:30:26;;;;;;;0.93;0.93;;;;;;;;;;6150285;23;20014;-93
2022/02/07 13:33:02;;;;;;;4.23;1.90;;;;;;;;;;6151132;23;20141;-94
2022/02/07 13:35:41;;;;;;;7.13;0.98;;;;;;;;;;6146372;23;20568;-92
2022/02/07 13:38:07;;;;;;;6.80;0.90;;;;;;;;;;6151097;23;20014;-96
2022/02/07 13:40:50;;;;;;;3.60;0.70;;;;;;;;;;6151402;23;20020;-93
2022/02/07 13:43:19;;;;;;;4.78;1.20;;;;;;;;;;6150012;23;20014;-93
2022/02/07 13:45:56;;;;;;;5.72;0.90;;;;;;;;;;6145386;23;20048;-95
2022/02/07 13:48:23;;;;;;;0.88;0.88;;;;;;;;;;6150507;23;20013;-92
2022/02/07 13:50:50;;;;;;;1.73;1.13;;;;;;;;;;6195922;23;20008;-94
2022/02/07 13:53:19;;;;;;;3.88;1.15;;;;;;;;;;6216752;23;20386;-92
2022/02/07 13:55:47;;;;;;;1.90;0.68;;;;;;;;;;6239192;23;20011;-93
2022/02/07 13:58:21;;;;;;;2.53;0.68;;;;;;;;;;6215727;23;20447;-93
2022/02/07 14:00:54;;;;;;;4.22;0.68;;;;;;;;;;6243890;23;20000;-93
2022/02/07 14:03:30;;;;;;;2.15;1.02;;;;;;;;;;6241834;23;20463;-95
2022/02/07 14:06:07;;;;;;;2.78;1.20;;;;;;;;;;6212350;23;20008;-92
2022/02/07 14:08:44;;;;;;;2.13;1.38;;;;;;;;;;6242585;23;20000;-92
2022/02/07 14:11:18;;;;;;;1.30;0.75;;;;;;;;;;6243855;23;20503;-92
2022/02/07 14:13:51;;;;;;;2.25;1.10;;;;;;;;;;6213736;23;20004;-95
2022/02/07 14:16:26;;;;;;;2.25;0.88;;;;;;;;;;6211707;23;20024;-92
2022/02/07 14:18:55;;;;;;;3.08;0.88;;;;;;;;;;6208665;23;20012;-94
2022/02/07 14:21:23;;;;;;;1.45;0.80;;;;;;;;;;6242286;23;20008;-94
2022/02/07 14:23:50;;;;;;;4.55;0.77;;;;;;;;;;6243804;23;20032;-93
2022/02/07 14:26:19;;;;;;;2.47;0.70;;;;;;;;;;6213782;23;20012;-94
2022/02/07 14:28:53;;;;;;;2.83;1.00;;;;;;;;;;6243185;23;20513;-93
2022/02/07 14:31:20;;;;;;;5.40;1.58;;;;;;;;;;6241745;23;20034;-93
2022/02/07 14:33:47;;;;;;;5.57;2.00;;;;;;;;;;6215156;23;20012;-93
2022/02/07 14:36:13;;;;;;;1.55;0.77;;;;;;;;;;6240376;23;20011;-94
2022/02/07 14:39:08;;;;;;;8.57;1.48;;;;;;;;;;6217149;23;20008;-93
2022/02/07 14:41:46;;;;;;;1.40;0.82;;;;;;;;;;6218198;23;20000;-96
2022/02/07 14:44:21;;;;;;;3.42;1.02;;;;;;;;;;6217646;23;20023;-95
2022/02/07 14:47:05;;;;;;;1.30;1.00;;;;;;;;;;6240850;23;20004;-95
2022/02/07 14:49:31;;;;;;;1.33;0.95;;;;;;;;;;6244033;23;20019;-96
2022/02/07 14:51:59;;;;;;;6.10;1.13;;;;;;;;;;6215467;23;20000;-93
2022/02/07 14:54:26;;;;;;;8.02;1.50;;;;;;;;;;6241665;23;20008;-94
2022/02/07 14:56:55;;;;;;;2.85;1.05;;;;;;;;;;6237519;23;20004;-96
2022/02/07 14:59:25;;;;;;;5.00;0.93;;;;;;;;;;6240953;23;20011;-94
2022/02/07 15:01:52;;;;;;;1.83;1.02;;;;;;;;;;6242102;23;20008;-94
2022/02/07 15:04:20;;;;;;;1.75;1.35;;;;;;;;;;6214200;23;20048;-93
2022/02/07 15:06:46;;;;;;;;;;;;;;;;;;6237297;23;20416;-94
2022/02/07 15:09:15;;;;;;;2.58;1.42;;;;;;;;;;6215534;23;19906;-94
2022/02/07 15:11:43;;;;;;;1.38;1.23;;;;;;;;;;6241023;23;20011;-94
2022/02/07 15:14:13;;;;;;;0.60;0.60;;;;;;;;;;6214081;23;20431;-94
2022/02/07 15:16:47;;;;;;;2.05;0.85;;;;;;;;;;6208967;23;20013;-93
2022/02/07 15:19:15;;;;;;;6.13;1.02;;;;;;;;;;6240429;23;20087;-93
2022/02/07 15:21:56;;;;;;;1.70;0.73;;;;;;;;;;6233801;23;20012;-93
2022/02/07 15:24:30;;;;;;;5.40;1.05;;;;;;;;;;6215010;23;20020;-92
2022/02/07 15:27:01;;;;;;;1.15;1.08;;;;;;;;;;6206951;23;20100;-93
2022/02/07 15:29:27;;;;;;;7.50;1.80;;;;;;;;;;6241518;23;20091;-94
2022/02/07 15:32:09;;;;;;;4.57;1.27;;;;;;;;;;6241444;23;20024;-94
2022/02/07 15:34:36;;;;;;;7.25;1.05;;;;;;;;;;6240674;23;20011;-93
2022/02/07 15:37:11;;;;;;;1.45;0.93;;;;;;;;;;6234995;23;20012;-92
2022/02/07 15:39:37;;;;;;;1.30;0.75;;;;;;;;;;6242546;23;20372;-93
2022/02/07 15:42:03;;;;;;;2.15;0.95;;;;;;;;;;6213889;23;20039;-93
2022/02/07 15:44:30;;;;;;;2.42;0.90;;;;;;;;;;6214455;23;20016;-92
2022/02/07 15:46:56;;;;;;;1.77;0.93;;;;;;;;;;6207984;23;20406;-93
2022/02/07 15:49:25;;;;;;;2.55;0.82;;;;;;;;;;6241609;23;20374;-93
2022/02/07 15:51:52;;;;;;;1.05;0.95;;;;;;;;;;6214250;23;20031;-95
2022/02/07 15:54:18;;;;;;;2.45;1.35;;;;;;;;;;6241105;23;20004;-94
2022/02/07 15:56:44;;;;;;;1.77;1.67;;;;;;;;;;6235042;23;20450;-96
2022/02/07 15:59:10;;;;;;;2.83;1.10;;;;;;;;;;6242152;23;20008;-94
2022/02/07 16:01:37;;;;;;;11.63;1.20;;;;;;;;;;6239615;23;20008;-93
2022/02/07 16:04:03;;;;;;;1.42;0.85;;;;;;;;;;6213503;23;20008;-93
2022/02/07 16:06:29;;;;;;;0.73;0.73;;;;;;;;;;6233835;23;20054;-94
2022/02/07 16:08:55;;;;;;;3.25;0.80;;;;;;;;;;6242260;23;20008;-94
2022/02/07 16:11:21;;;;;;;5.53;2.13;;;;;;;;;;6212741;23;20512;-94
2022/02/07 16:13:53;;;;;;;3.75;1.42;;;;;;;;;;6241285;23;20004;-94
2022/02/07 16:16:28;;;;;;;8.35;1.50;;;;;;;;;;6234594;23;20207;-94
2022/02/07 16:18:54;;;;;;;3.92;1.25;;;;;;;;;;6240974;23;20107;-94
2022/02/07 16:21:21;;;;;;;1.17;1.08;;;;;;;;;;6213014;23;20008;-93
2022/02/07 16:23:47;;;;;;;2.75;1.52;;;;;;;;;;6240726;23;20026;-94
2022/02/07 16:26:13;;;;;;;1.48;1.33;;;;;;;;;;6229998;23;20007;-94
2022/02/07 16:28:59;;;;;;;1.40;0.70;;;;;;;;;;6214066;23;20008;-92
2022/02/07 16:31:27;;;;;;;1.00;0.90;;;;;;;;;;6146628;23;20361;-96
2022/02/07 16:33:53;;;;;;;0.95;0.65;;;;;;;;;;6147524;23;20341;-94
2022/02/07 16:36:22;;;;;;;1.67;0.88;;;;;;;;;;6141657;23;20009;-94
2022/02/07 16:38:59;;;;;;;0.85;0.85;;;;;;;;;;6148116;23;20001;-94
2022/02/07 16:41:33;;;;;;;1.75;0.65;;;;;;;;;;6149204;23;20010;-94
2022/02/07 16:44:00;;;;;;;3.38;1.20;;;;;;;;;;6149682;23;20037;-93
2022/02/07 16:48:53;;;;;;;6.95;1.77;;;;;;;;;;6150343;23;20100;-91
2022/02/07 16:51:35;;;;;;;7.68;1.10;;;;;;;;;;6150063;23;20433;-95
2022/02/07 16:54:08;;;;;;;2.45;1.15;;;;;;;;;;6149608;23;20012;-96
2022/02/07 16:56:36;;;;;;;3.78;1.00;;;;;;;;;;6136314;23;20001;-95
2022/02/07 16:59:18;;;;;;;5.40;1.10;;;;;;;;;;6149396;23;20562;-96
2022/02/07 17:05:04;;;;;;;3.92;1.10;;;;;;;;;;6059891;23;20458;-95
2022/02/07 17:07:45;;;;;;;5.35;2.53;;;;;;;;;;6061469;23;20021;-93
2022/02/07 17:13:30;;;;;;;14.45;6.60;;;;;;;;;;6107074;23;20010;-96
2022/02/07 17:16:09;;;;;;;;;;;;;;;;;;;;;
2022/02/07 17:21:35;;;;;;;5.00;3.70;;;;;;;;;;6150011;23;20006;-96
2022/02/07 17:24:04;;;;;;;9.40;3.40;;;;;;;;;;6150774;23;20056;-96
2022/02/07 17:26:35;;;;;;;4.93;2.80;;;;;;;;;;6143032;23;20002;-96
2022/02/07 17:29:16;;;;;;;13.93;1.77;;;;;;;;;;6149116;23;20013;-96
2022/02/07 17:31:45;;;;;;;3.92;1.98;;;;;;;;;;6126373;23;20040;-96
2022/02/07 17:34:30;;;;;;;4.72;1.73;;;;;;;;;;6102999;23;20010;-95
2022/02/07 17:37:07;;;;;;;12.63;2.25;;;;;;;;;;6149235;23;20023;-96
2022/02/07 17:39:42;;;;;;;3.08;1.90;;;;;;;;;;6136007;23;20002;-96
2022/02/07 17:42:27;;;;;;;5.63;1.42;;;;;;;;;;6219485;23;20000;-96
2022/02/07 17:47:56;;;;;;;3.63;1.67;;;;;;;;;;6246195;23;20004;-96
2022/02/07 17:50:23;;;;;;;10.30;3.47;;;;;;;;;;6246671;23;20008;-93
2022/02/07 17:52:49;;;;;;;15.32;5.47;;;;;;;;;;6245295;23;20012;-95
2022/02/07 17:55:17;;;;;;;12.45;5.63;;;;;;;;;;6244324;23;20001;-96
2022/02/07 17:58:07;;;;;;;14.35;6.03;;;;;;;;;;6257344;23;20415;-96
2022/02/07 18:04:10;;;;;;;;;;;;;;;;;;;;;
2022/02/07 18:07:05;;;;;;;14.65;3.83;;;;;;;;;;6160331;23;19936;-96
2022/02/07 18:33:54;;;;;;;10.38;4.93;;;;;;;;;;6109949;23;20030;-96
2022/02/07 18:50:17;;;;;;;;;;;;;;;;;;;;;
2022/02/07 19:20:24;;;;;;;3.45;1.83;;;;;;;;;;6016510;22;6934604;-95
2022/02/07 19:22:54;;;;;;;2.90;1.98;;;;;;;;;;6318556;22;20011;-96
2022/02/07 19:25:33;;;;;;;14.38;3.92;;;;;;;;;;6291141;22;20004;-96
2022/02/07 19:28:05;;;;;;;6.13;2.05;;;;;;;;;;6317963;22;20086;-96
2022/02/07 19:30:32;;;;;;;11.38;4.50;;;;;;;;;;6318899;22;19999;-96
2022/02/07 19:35:52;;;;;;;10.88;5.20;;;;;;;;;;6300160;22;20006;-96
2022/02/07 19:38:19;;;;;;;9.35;4.57;;;;;;;;;;6287750;22;20015;-96
2022/02/07 19:40:52;;;;;;;11.05;5.32;;;;;;;;;;6315732;22;19999;-95
2022/02/07 19:43:47;;;;;;;7.82;2.92;;;;;;;;;;6310198;22;20003;-95
2022/02/07 19:46:17;;;;;;;5.82;3.40;;;;;;;;;;6331006;22;20007;-96
2022/02/07 19:48:49;;;;;;;6.85;2.97;;;;;;;;;;6330224;22;19999;-96
2022/02/07 19:51:19;;;;;;;4.93;2.42;;;;;;;;;;6302182;22;20007;-96
2022/02/07 19:54:03;;;;;;;9.82;4.47;;;;;;;;;;6331349;22;20022;-96
2022/02/07 19:56:48;;;;;;;10.95;4.93;;;;;;;;;;6333489;22;20003;-96
2022/02/07 20:07:09;;;;;;;4.22;3.15;;;;;;;;;;6264383;22;20362;-96